sensor_id;sensor_type;location;lat;lon;timestamp;P1;durP1;ratioP1;P2;durP2;ratioP2
24151;SDS011;12311;50.866;4.332;2023-11-21T00:00:12;22.80;;;7.55;;
24151;SDS011;12311;50.866;4.332;2023-11-21T00:02:39;25.85;;;7.88;;
24151;SDS011;12311;50.866;4.332;2023-11-21T00:05:07;24.77;;;7.68;;
24151;SDS011;12311;50.866;4.332;2023-11-21T00:07:36;17.77;;;6.15;;
24151;SDS011;12311;50.866;4.332;2023-11-21T00:10:03;21.60;;;7.13;;
24151;SDS011;12311;50.866;4.332;2023-11-21T00:12:33;17.50;;;7.03;;
24151;SDS011;12311;50.866;4.332;2023-11-21T00:14:59;22.13;;;7.38;;
24151;SDS011;12311;50.866;4.332;2023-11-21T00:17:24;22.95;;;7.93;;
24151;SDS011;12311;50.866;4.332;2023-11-21T00:19:50;18.35;;;6.43;;
24151;SDS011;12311;50.866;4.332;2023-11-21T00:22:19;22.30;;;7.25;;
24151;SDS011;12311;50.866;4.332;2023-11-21T00:24:46;25.52;;;8.07;;
24151;SDS011;12311;50.866;4.332;2023-11-21T00:27:12;21.05;;;6.97;;
24151;SDS011;12311;50.866;4.332;2023-11-21T00:29:39;18.58;;;7.43;;
24151;SDS011;12311;50.866;4.332;2023-11-21T00:32:05;18.35;;;7.07;;
24151;SDS011;12311;50.866;4.332;2023-11-21T00:34:32;20.25;;;6.65;;
24151;SDS011;12311;50.866;4.332;2023-11-21T00:36:59;19.63;;;7.18;;
24151;SDS011;12311;50.866;4.332;2023-11-21T00:39:25;15.80;;;6.38;;
24151;SDS011;12311;50.866;4.332;2023-11-21T00:41:51;20.40;;;6.72;;
24151;SDS011;12311;50.866;4.332;2023-11-21T00:44:17;19.25;;;6.45;;
24151;SDS011;12311;50.866;4.332;2023-11-21T00:46:43;19.27;;;6.47;;
24151;SDS011;12311;50.866;4.332;2023-11-21T00:49:09;19.38;;;7.28;;
24151;SDS011;12311;50.866;4.332;2023-11-21T00:51:35;18.98;;;7.78;;
24151;SDS011;12311;50.866;4.332;2023-11-21T00:54:01;18.42;;;7.18;;
24151;SDS011;12311;50.866;4.332;2023-11-21T00:56:27;19.48;;;7.18;;
24151;SDS011;12311;50.866;4.332;2023-11-21T00:58:53;22.52;;;7.78;;
24151;SDS011;12311;50.866;4.332;2023-11-21T01:01:19;21.92;;;6.93;;
24151;SDS011;12311;50.866;4.332;2023-11-21T01:03:45;21.83;;;7.75;;
24151;SDS011;12311;50.866;4.332;2023-11-21T01:06:11;20.25;;;7.50;;
24151;SDS011;12311;50.866;4.332;2023-11-21T01:08:37;16.48;;;6.72;;
24151;SDS011;12311;50.866;4.332;2023-11-21T01:11:03;20.77;;;6.78;;
24151;SDS011;12311;50.866;4.332;2023-11-21T01:13:29;15.90;;;6.65;;
24151;SDS011;12311;50.866;4.332;2023-11-21T01:15:55;17.50;;;7.07;;
24151;SDS011;12311;50.866;4.332;2023-11-21T01:18:21;16.27;;;7.18;;
24151;SDS011;12311;50.866;4.332;2023-11-21T01:20:47;18.95;;;6.90;;
24151;SDS011;12311;50.866;4.332;2023-11-21T01:23:13;17.60;;;6.43;;
24151;SDS011;12311;50.866;4.332;2023-11-21T01:25:39;15.27;;;6.90;;
24151;SDS011;12311;50.866;4.332;2023-11-21T01:28:05;18.30;;;6.75;;
24151;SDS011;12311;50.866;4.332;2023-11-21T01:30:31;20.67;;;7.00;;
24151;SDS011;12311;50.866;4.332;2023-11-21T01:32:58;19.48;;;7.15;;
24151;SDS011;12311;50.866;4.332;2023-11-21T01:35:23;17.67;;;6.63;;
24151;SDS011;12311;50.866;4.332;2023-11-21T01:37:49;17.15;;;6.25;;
24151;SDS011;12311;50.866;4.332;2023-11-21T01:40:15;15.88;;;7.28;;
24151;SDS011;12311;50.866;4.332;2023-11-21T01:42:41;15.95;;;6.70;;
24151;SDS011;12311;50.866;4.332;2023-11-21T01:45:09;21.27;;;6.43;;
24151;SDS011;12311;50.866;4.332;2023-11-21T01:47:35;15.98;;;7.50;;
24151;SDS011;12311;50.866;4.332;2023-11-21T01:50:03;23.08;;;7.47;;
24151;SDS011;12311;50.866;4.332;2023-11-21T01:52:32;16.63;;;7.07;;
24151;SDS011;12311;50.866;4.332;2023-11-21T01:55:00;17.20;;;6.50;;
24151;SDS011;12311;50.866;4.332;2023-11-21T01:57:26;19.33;;;6.63;;
24151;SDS011;12311;50.866;4.332;2023-11-21T01:59:52;18.50;;;6.40;;
24151;SDS011;12311;50.866;4.332;2023-11-21T02:02:19;19.02;;;7.65;;
24151;SDS011;12311;50.866;4.332;2023-11-21T02:04:45;14.20;;;6.03;;
24151;SDS011;12311;50.866;4.332;2023-11-21T02:07:11;16.15;;;5.80;;
24151;SDS011;12311;50.866;4.332;2023-11-21T02:09:37;15.75;;;6.47;;
24151;SDS011;12311;50.866;4.332;2023-11-21T02:12:07;16.15;;;6.32;;
24151;SDS011;12311;50.866;4.332;2023-11-21T02:14:35;19.00;;;6.78;;
24151;SDS011;12311;50.866;4.332;2023-11-21T02:17:01;15.02;;;6.15;;
24151;SDS011;12311;50.866;4.332;2023-11-21T02:19:28;13.30;;;6.15;;
24151;SDS011;12311;50.866;4.332;2023-11-21T02:21:55;13.65;;;5.85;;
24151;SDS011;12311;50.866;4.332;2023-11-21T02:24:28;20.02;;;6.88;;
24151;SDS011;12311;50.866;4.332;2023-11-21T02:26:54;11.48;;;5.57;;
24151;SDS011;12311;50.866;4.332;2023-11-21T02:29:20;14.07;;;5.25;;
24151;SDS011;12311;50.866;4.332;2023-11-21T02:31:53;16.70;;;5.15;;
24151;SDS011;12311;50.866;4.332;2023-11-21T02:34:20;15.95;;;5.78;;
24151;SDS011;12311;50.866;4.332;2023-11-21T02:36:46;14.68;;;6.60;;
24151;SDS011;12311;50.866;4.332;2023-11-21T02:39:14;11.70;;;4.90;;
24151;SDS011;12311;50.866;4.332;2023-11-21T02:41:41;9.75;;;4.97;;
24151;SDS011;12311;50.866;4.332;2023-11-21T02:44:08;15.65;;;6.05;;
24151;SDS011;12311;50.866;4.332;2023-11-21T02:46:34;11.25;;;4.32;;
24151;SDS011;12311;50.866;4.332;2023-11-21T02:49:01;10.57;;;4.85;;
24151;SDS011;12311;50.866;4.332;2023-11-21T02:51:35;18.90;;;5.57;;
24151;SDS011;12311;50.866;4.332;2023-11-21T02:54:01;14.55;;;6.10;;
24151;SDS011;12311;50.866;4.332;2023-11-21T02:56:28;15.10;;;5.60;;
24151;SDS011;12311;50.866;4.332;2023-11-21T02:58:57;16.92;;;6.03;;
24151;SDS011;12311;50.866;4.332;2023-11-21T03:01:24;15.88;;;5.72;;
24151;SDS011;12311;50.866;4.332;2023-11-21T03:03:50;15.02;;;5.72;;
24151;SDS011;12311;50.866;4.332;2023-11-21T03:06:17;11.02;;;5.47;;
24151;SDS011;12311;50.866;4.332;2023-11-21T03:08:46;18.60;;;6.47;;
24151;SDS011;12311;50.866;4.332;2023-11-21T03:11:12;15.98;;;5.55;;
24151;SDS011;12311;50.866;4.332;2023-11-21T03:13:41;12.73;;;4.80;;
24151;SDS011;12311;50.866;4.332;2023-11-21T03:16:10;15.20;;;5.35;;
24151;SDS011;12311;50.866;4.332;2023-11-21T03:18:37;12.60;;;4.45;;
24151;SDS011;12311;50.866;4.332;2023-11-21T03:21:06;16.15;;;4.85;;
24151;SDS011;12311;50.866;4.332;2023-11-21T03:23:34;9.40;;;4.33;;
24151;SDS011;12311;50.866;4.332;2023-11-21T03:26:00;11.85;;;4.57;;
24151;SDS011;12311;50.866;4.332;2023-11-21T03:28:26;11.55;;;4.75;;
24151;SDS011;12311;50.866;4.332;2023-11-21T03:30:52;11.80;;;4.47;;
24151;SDS011;12311;50.866;4.332;2023-11-21T03:33:18;12.60;;;5.53;;
24151;SDS011;12311;50.866;4.332;2023-11-21T03:35:44;14.77;;;5.80;;
24151;SDS011;12311;50.866;4.332;2023-11-21T03:38:10;14.55;;;5.57;;
24151;SDS011;12311;50.866;4.332;2023-11-21T03:40:36;14.13;;;5.13;;
24151;SDS011;12311;50.866;4.332;2023-11-21T03:43:01;14.10;;;5.57;;
24151;SDS011;12311;50.866;4.332;2023-11-21T03:45:27;13.95;;;5.50;;
24151;SDS011;12311;50.866;4.332;2023-11-21T03:47:52;17.35;;;6.35;;
24151;SDS011;12311;50.866;4.332;2023-11-21T03:50:18;13.93;;;6.10;;
24151;SDS011;12311;50.866;4.332;2023-11-21T03:52:44;15.07;;;5.82;;
24151;SDS011;12311;50.866;4.332;2023-11-21T03:55:09;11.00;;;5.22;;
24151;SDS011;12311;50.866;4.332;2023-11-21T03:57:35;14.52;;;5.85;;
24151;SDS011;12311;50.866;4.332;2023-11-21T04:00:01;18.05;;;5.70;;
24151;SDS011;12311;50.866;4.332;2023-11-21T04:02:29;13.52;;;6.43;;
24151;SDS011;12311;50.866;4.332;2023-11-21T04:04:56;13.45;;;5.65;;
24151;SDS011;12311;50.866;4.332;2023-11-21T04:07:22;14.93;;;6.22;;
24151;SDS011;12311;50.866;4.332;2023-11-21T04:09:48;14.95;;;6.80;;
24151;SDS011;12311;50.866;4.332;2023-11-21T04:12:13;15.38;;;6.68;;
24151;SDS011;12311;50.866;4.332;2023-11-21T04:14:39;13.75;;;6.40;;
24151;SDS011;12311;50.866;4.332;2023-11-21T04:17:05;11.77;;;5.43;;
24151;SDS011;12311;50.866;4.332;2023-11-21T04:19:30;16.27;;;6.32;;
24151;SDS011;12311;50.866;4.332;2023-11-21T04:21:56;17.60;;;7.28;;
24151;SDS011;12311;50.866;4.332;2023-11-21T04:24:22;18.95;;;7.57;;
24151;SDS011;12311;50.866;4.332;2023-11-21T04:26:47;15.05;;;6.25;;
24151;SDS011;12311;50.866;4.332;2023-11-21T04:29:13;14.90;;;6.60;;
24151;SDS011;12311;50.866;4.332;2023-11-21T04:31:38;15.25;;;6.40;;
24151;SDS011;12311;50.866;4.332;2023-11-21T04:34:04;16.88;;;6.68;;
24151;SDS011;12311;50.866;4.332;2023-11-21T04:36:30;20.48;;;7.28;;
24151;SDS011;12311;50.866;4.332;2023-11-21T04:38:56;19.50;;;7.82;;
24151;SDS011;12311;50.866;4.332;2023-11-21T04:41:22;19.83;;;7.38;;
24151;SDS011;12311;50.866;4.332;2023-11-21T04:43:47;16.77;;;7.45;;
24151;SDS011;12311;50.866;4.332;2023-11-21T04:46:14;20.02;;;7.85;;
24151;SDS011;12311;50.866;4.332;2023-11-21T04:48:40;20.95;;;7.60;;
24151;SDS011;12311;50.866;4.332;2023-11-21T04:51:05;16.17;;;6.65;;
24151;SDS011;12311;50.866;4.332;2023-11-21T04:53:31;17.50;;;7.72;;
24151;SDS011;12311;50.866;4.332;2023-11-21T04:55:57;16.35;;;7.75;;
24151;SDS011;12311;50.866;4.332;2023-11-21T04:58:23;17.60;;;7.53;;
24151;SDS011;12311;50.866;4.332;2023-11-21T05:00:49;16.75;;;7.78;;
24151;SDS011;12311;50.866;4.332;2023-11-21T05:03:15;15.55;;;7.43;;
24151;SDS011;12311;50.866;4.332;2023-11-21T05:05:40;14.10;;;7.13;;
24151;SDS011;12311;50.866;4.332;2023-11-21T05:08:06;14.73;;;7.15;;
24151;SDS011;12311;50.866;4.332;2023-11-21T05:10:32;18.15;;;6.97;;
24151;SDS011;12311;50.866;4.332;2023-11-21T05:12:57;20.85;;;7.93;;
24151;SDS011;12311;50.866;4.332;2023-11-21T05:15:23;16.63;;;7.22;;
24151;SDS011;12311;50.866;4.332;2023-11-21T05:17:50;16.55;;;7.93;;
24151;SDS011;12311;50.866;4.332;2023-11-21T05:20:17;17.08;;;8.23;;
24151;SDS011;12311;50.866;4.332;2023-11-21T05:22:45;17.80;;;7.28;;
24151;SDS011;12311;50.866;4.332;2023-11-21T05:25:13;16.60;;;6.90;;
24151;SDS011;12311;50.866;4.332;2023-11-21T05:27:38;18.98;;;8.18;;
24151;SDS011;12311;50.866;4.332;2023-11-21T05:30:05;21.40;;;8.23;;
24151;SDS011;12311;50.866;4.332;2023-11-21T05:32:34;22.20;;;8.50;;
24151;SDS011;12311;50.866;4.332;2023-11-21T05:35:00;17.23;;;8.18;;
24151;SDS011;12311;50.866;4.332;2023-11-21T05:37:26;23.00;;;8.55;;
24151;SDS011;12311;50.866;4.332;2023-11-21T05:39:55;19.75;;;8.40;;
24151;SDS011;12311;50.866;4.332;2023-11-21T05:42:29;17.52;;;8.93;;
24151;SDS011;12311;50.866;4.332;2023-11-21T05:44:56;14.05;;;7.60;;
24151;SDS011;12311;50.866;4.332;2023-11-21T05:47:24;18.70;;;7.70;;
24151;SDS011;12311;50.866;4.332;2023-11-21T05:49:51;17.98;;;8.52;;
24151;SDS011;12311;50.866;4.332;2023-11-21T05:52:17;17.33;;;7.82;;
24151;SDS011;12311;50.866;4.332;2023-11-21T05:54:43;16.48;;;7.22;;
24151;SDS011;12311;50.866;4.332;2023-11-21T05:57:09;18.50;;;7.63;;
24151;SDS011;12311;50.866;4.332;2023-11-21T05:59:34;16.08;;;7.55;;
24151;SDS011;12311;50.866;4.332;2023-11-21T06:02:00;14.65;;;6.85;;
24151;SDS011;12311;50.866;4.332;2023-11-21T06:04:27;17.55;;;7.78;;
24151;SDS011;12311;50.866;4.332;2023-11-21T06:06:52;15.43;;;7.05;;
24151;SDS011;12311;50.866;4.332;2023-11-21T06:09:18;17.10;;;7.45;;
24151;SDS011;12311;50.866;4.332;2023-11-21T06:11:44;20.20;;;8.45;;
24151;SDS011;12311;50.866;4.332;2023-11-21T06:14:10;16.13;;;6.88;;
24151;SDS011;12311;50.866;4.332;2023-11-21T06:16:36;16.67;;;7.90;;
24151;SDS011;12311;50.866;4.332;2023-11-21T06:19:01;21.17;;;7.53;;
24151;SDS011;12311;50.866;4.332;2023-11-21T06:21:27;19.48;;;7.65;;
24151;SDS011;12311;50.866;4.332;2023-11-21T06:23:53;17.25;;;7.10;;
24151;SDS011;12311;50.866;4.332;2023-11-21T06:26:22;18.92;;;7.68;;
24151;SDS011;12311;50.866;4.332;2023-11-21T06:28:47;17.40;;;7.45;;
24151;SDS011;12311;50.866;4.332;2023-11-21T06:31:16;16.90;;;7.18;;
24151;SDS011;12311;50.866;4.332;2023-11-21T06:33:42;16.33;;;7.63;;
24151;SDS011;12311;50.866;4.332;2023-11-21T06:36:08;15.93;;;7.30;;
24151;SDS011;12311;50.866;4.332;2023-11-21T06:38:36;15.68;;;7.28;;
24151;SDS011;12311;50.866;4.332;2023-11-21T06:41:02;14.70;;;7.40;;
24151;SDS011;12311;50.866;4.332;2023-11-21T06:43:29;13.93;;;6.82;;
24151;SDS011;12311;50.866;4.332;2023-11-21T06:45:56;17.10;;;7.03;;
24151;SDS011;12311;50.866;4.332;2023-11-21T06:48:22;16.77;;;6.80;;
24151;SDS011;12311;50.866;4.332;2023-11-21T06:50:48;13.70;;;6.93;;
24151;SDS011;12311;50.866;4.332;2023-11-21T06:53:13;14.18;;;6.60;;
24151;SDS011;12311;50.866;4.332;2023-11-21T06:55:40;16.10;;;7.13;;
24151;SDS011;12311;50.866;4.332;2023-11-21T06:58:05;16.67;;;7.30;;
24151;SDS011;12311;50.866;4.332;2023-11-21T07:00:31;13.02;;;6.78;;
24151;SDS011;12311;50.866;4.332;2023-11-21T07:02:56;15.95;;;6.93;;
24151;SDS011;12311;50.866;4.332;2023-11-21T07:05:22;15.23;;;6.78;;
24151;SDS011;12311;50.866;4.332;2023-11-21T07:07:49;16.10;;;7.28;;
24151;SDS011;12311;50.866;4.332;2023-11-21T07:10:15;15.15;;;6.82;;
24151;SDS011;12311;50.866;4.332;2023-11-21T07:12:42;18.25;;;7.53;;
24151;SDS011;12311;50.866;4.332;2023-11-21T07:15:07;13.98;;;6.53;;
24151;SDS011;12311;50.866;4.332;2023-11-21T07:17:37;17.60;;;7.70;;
24151;SDS011;12311;50.866;4.332;2023-11-21T07:20:03;17.80;;;7.53;;
24151;SDS011;12311;50.866;4.332;2023-11-21T07:22:29;16.75;;;7.35;;
24151;SDS011;12311;50.866;4.332;2023-11-21T07:24:55;21.95;;;8.38;;
24151;SDS011;12311;50.866;4.332;2023-11-21T07:27:23;14.82;;;6.80;;
24151;SDS011;12311;50.866;4.332;2023-11-21T07:29:49;18.42;;;7.38;;
24151;SDS011;12311;50.866;4.332;2023-11-21T07:32:15;17.42;;;8.07;;
24151;SDS011;12311;50.866;4.332;2023-11-21T07:34:41;16.08;;;7.15;;
24151;SDS011;12311;50.866;4.332;2023-11-21T07:37:07;20.15;;;8.18;;
24151;SDS011;12311;50.866;4.332;2023-11-21T07:39:34;18.35;;;7.47;;
24151;SDS011;12311;50.866;4.332;2023-11-21T07:42:01;19.70;;;7.18;;
24151;SDS011;12311;50.866;4.332;2023-11-21T07:44:29;18.88;;;8.68;;
24151;SDS011;12311;50.866;4.332;2023-11-21T07:46:54;18.08;;;7.53;;
24151;SDS011;12311;50.866;4.332;2023-11-21T07:49:24;18.33;;;7.82;;
24151;SDS011;12311;50.866;4.332;2023-11-21T07:51:51;16.30;;;7.53;;
24151;SDS011;12311;50.866;4.332;2023-11-21T07:54:17;19.08;;;7.70;;
24151;SDS011;12311;50.866;4.332;2023-11-21T07:56:43;24.77;;;7.75;;
24151;SDS011;12311;50.866;4.332;2023-11-21T07:59:10;19.00;;;7.28;;
24151;SDS011;12311;50.866;4.332;2023-11-21T08:01:35;23.88;;;7.78;;
24151;SDS011;12311;50.866;4.332;2023-11-21T08:04:01;19.50;;;8.60;;
24151;SDS011;12311;50.866;4.332;2023-11-21T08:06:28;18.90;;;8.30;;
24151;SDS011;12311;50.866;4.332;2023-11-21T08:08:58;21.25;;;7.65;;
24151;SDS011;12311;50.866;4.332;2023-11-21T08:11:24;20.33;;;8.25;;
24151;SDS011;12311;50.866;4.332;2023-11-21T08:13:49;19.75;;;7.65;;
24151;SDS011;12311;50.866;4.332;2023-11-21T08:16:15;21.27;;;7.97;;
24151;SDS011;12311;50.866;4.332;2023-11-21T08:18:41;19.92;;;7.53;;
24151;SDS011;12311;50.866;4.332;2023-11-21T08:21:07;26.35;;;8.15;;
24151;SDS011;12311;50.866;4.332;2023-11-21T08:23:33;19.20;;;8.05;;
24151;SDS011;12311;50.866;4.332;2023-11-21T08:25:59;21.52;;;7.80;;
24151;SDS011;12311;50.866;4.332;2023-11-21T08:28:25;22.45;;;7.95;;
24151;SDS011;12311;50.866;4.332;2023-11-21T08:30:53;18.85;;;8.23;;
24151;SDS011;12311;50.866;4.332;2023-11-21T08:33:19;18.73;;;7.95;;
24151;SDS011;12311;50.866;4.332;2023-11-21T08:35:45;18.08;;;7.57;;
24151;SDS011;12311;50.866;4.332;2023-11-21T08:38:11;22.33;;;9.15;;
24151;SDS011;12311;50.866;4.332;2023-11-21T08:40:37;20.35;;;8.77;;
24151;SDS011;12311;50.866;4.332;2023-11-21T08:43:04;20.02;;;7.63;;
24151;SDS011;12311;50.866;4.332;2023-11-21T08:45:29;19.13;;;7.45;;
24151;SDS011;12311;50.866;4.332;2023-11-21T08:47:56;22.90;;;7.47;;
24151;SDS011;12311;50.866;4.332;2023-11-21T08:50:22;18.52;;;7.32;;
24151;SDS011;12311;50.866;4.332;2023-11-21T08:52:48;19.15;;;8.25;;
24151;SDS011;12311;50.866;4.332;2023-11-21T08:55:13;20.00;;;7.32;;
24151;SDS011;12311;50.866;4.332;2023-11-21T08:57:39;25.15;;;8.80;;
24151;SDS011;12311;50.866;4.332;2023-11-21T09:00:09;20.33;;;8.32;;
24151;SDS011;12311;50.866;4.332;2023-11-21T09:02:41;23.20;;;8.23;;
24151;SDS011;12311;50.866;4.332;2023-11-21T09:05:11;20.20;;;8.15;;
24151;SDS011;12311;50.866;4.332;2023-11-21T09:07:38;21.50;;;8.25;;
24151;SDS011;12311;50.866;4.332;2023-11-21T09:10:08;17.30;;;7.40;;
24151;SDS011;12311;50.866;4.332;2023-11-21T09:12:36;22.00;;;8.48;;
24151;SDS011;12311;50.866;4.332;2023-11-21T09:15:04;22.63;;;8.60;;
24151;SDS011;12311;50.866;4.332;2023-11-21T09:17:35;18.70;;;7.70;;
24151;SDS011;12311;50.866;4.332;2023-11-21T09:20:01;23.83;;;8.05;;
24151;SDS011;12311;50.866;4.332;2023-11-21T09:22:28;19.08;;;7.95;;
24151;SDS011;12311;50.866;4.332;2023-11-21T09:24:54;19.00;;;8.07;;
24151;SDS011;12311;50.866;4.332;2023-11-21T09:27:21;20.75;;;8.32;;
24151;SDS011;12311;50.866;4.332;2023-11-21T09:29:47;22.48;;;8.23;;
24151;SDS011;12311;50.866;4.332;2023-11-21T09:32:14;21.25;;;7.43;;
24151;SDS011;12311;50.866;4.332;2023-11-21T09:34:43;17.73;;;7.88;;
24151;SDS011;12311;50.866;4.332;2023-11-21T09:37:09;22.65;;;8.38;;
24151;SDS011;12311;50.866;4.332;2023-11-21T09:39:35;21.80;;;7.70;;
24151;SDS011;12311;50.866;4.332;2023-11-21T09:42:11;19.70;;;8.02;;
24151;SDS011;12311;50.866;4.332;2023-11-21T09:44:44;20.95;;;7.60;;
24151;SDS011;12311;50.866;4.332;2023-11-21T09:47:20;19.73;;;8.75;;
24151;SDS011;12311;50.866;4.332;2023-11-21T09:49:48;20.73;;;7.00;;
24151;SDS011;12311;50.866;4.332;2023-11-21T09:55:14;20.95;;;7.20;;
24151;SDS011;12311;50.866;4.332;2023-11-21T09:57:47;18.33;;;5.70;;
24151;SDS011;12311;50.866;4.332;2023-11-21T10:00:14;13.90;;;5.10;;
24151;SDS011;12311;50.866;4.332;2023-11-21T10:02:42;13.02;;;5.72;;
24151;SDS011;12311;50.866;4.332;2023-11-21T10:05:09;16.13;;;6.05;;
24151;SDS011;12311;50.866;4.332;2023-11-21T10:07:36;13.25;;;6.18;;
24151;SDS011;12311;50.866;4.332;2023-11-21T10:10:10;11.30;;;4.75;;
24151;SDS011;12311;50.866;4.332;2023-11-21T10:12:37;11.82;;;4.63;;
24151;SDS011;12311;50.866;4.332;2023-11-21T10:15:07;10.93;;;5.55;;
24151;SDS011;12311;50.866;4.332;2023-11-21T10:17:37;16.95;;;5.63;;
24151;SDS011;12311;50.866;4.332;2023-11-21T10:20:11;13.93;;;5.32;;
24151;SDS011;12311;50.866;4.332;2023-11-21T10:22:41;15.20;;;5.25;;
24151;SDS011;12311;50.866;4.332;2023-11-21T10:25:12;12.95;;;5.88;;
24151;SDS011;12311;50.866;4.332;2023-11-21T10:27:40;15.13;;;4.90;;
24151;SDS011;12311;50.866;4.332;2023-11-21T10:30:09;13.88;;;5.25;;
24151;SDS011;12311;50.866;4.332;2023-11-21T10:32:40;12.82;;;4.75;;
24151;SDS011;12311;50.866;4.332;2023-11-21T10:35:06;16.10;;;5.38;;
24151;SDS011;12311;50.866;4.332;2023-11-21T10:37:35;13.85;;;5.30;;
24151;SDS011;12311;50.866;4.332;2023-11-21T10:40:09;13.63;;;5.32;;
24151;SDS011;12311;50.866;4.332;2023-11-21T10:42:38;17.63;;;6.03;;
24151;SDS011;12311;50.866;4.332;2023-11-21T10:45:05;15.00;;;6.15;;
24151;SDS011;12311;50.866;4.332;2023-11-21T10:47:38;18.50;;;6.50;;
24151;SDS011;12311;50.866;4.332;2023-11-21T10:50:05;18.30;;;6.57;;
24151;SDS011;12311;50.866;4.332;2023-11-21T10:52:31;17.35;;;6.20;;
24151;SDS011;12311;50.866;4.332;2023-11-21T10:54:56;13.82;;;6.95;;
24151;SDS011;12311;50.866;4.332;2023-11-21T10:57:24;18.80;;;6.75;;
24151;SDS011;12311;50.866;4.332;2023-11-21T10:59:50;16.52;;;7.25;;
24151;SDS011;12311;50.866;4.332;2023-11-21T11:02:22;18.63;;;7.07;;
24151;SDS011;12311;50.866;4.332;2023-11-21T11:04:57;20.90;;;8.43;;
24151;SDS011;12311;50.866;4.332;2023-11-21T11:07:26;25.45;;;8.30;;
24151;SDS011;12311;50.866;4.332;2023-11-21T11:09:53;20.63;;;7.63;;
24151;SDS011;12311;50.866;4.332;2023-11-21T11:12:20;24.50;;;7.55;;
24151;SDS011;12311;50.866;4.332;2023-11-21T11:14:46;18.73;;;7.13;;
24151;SDS011;12311;50.866;4.332;2023-11-21T11:17:13;18.83;;;6.88;;
24151;SDS011;12311;50.866;4.332;2023-11-21T11:19:39;17.60;;;7.70;;
24151;SDS011;12311;50.866;4.332;2023-11-21T11:22:16;16.80;;;6.40;;
24151;SDS011;12311;50.866;4.332;2023-11-21T11:28:00;16.42;;;7.07;;
24151;SDS011;12311;50.866;4.332;2023-11-21T11:33:39;13.98;;;6.10;;
24151;SDS011;12311;50.866;4.332;2023-11-21T11:38:47;15.50;;;6.63;;
24151;SDS011;12311;50.866;4.332;2023-11-21T11:41:27;16.38;;;6.40;;
24151;SDS011;12311;50.866;4.332;2023-11-21T11:43:57;17.77;;;6.25;;
24151;SDS011;12311;50.866;4.332;2023-11-21T11:46:40;12.55;;;5.93;;
24151;SDS011;12311;50.866;4.332;2023-11-21T11:49:08;15.25;;;6.07;;
24151;SDS011;12311;50.866;4.332;2023-11-21T11:51:33;12.82;;;4.63;;
24151;SDS011;12311;50.866;4.332;2023-11-21T11:54:01;13.10;;;5.75;;
24151;SDS011;12311;50.866;4.332;2023-11-21T11:56:31;12.48;;;4.88;;
24151;SDS011;12311;50.866;4.332;2023-11-21T11:58:59;11.35;;;4.78;;
24151;SDS011;12311;50.866;4.332;2023-11-21T12:01:27;8.50;;;4.40;;
24151;SDS011;12311;50.866;4.332;2023-11-21T12:07:00;9.32;;;3.97;;
24151;SDS011;12311;50.866;4.332;2023-11-21T12:09:28;9.55;;;3.78;;
24151;SDS011;12311;50.866;4.332;2023-11-21T12:11:56;7.75;;;3.90;;
24151;SDS011;12311;50.866;4.332;2023-11-21T12:14:22;10.43;;;3.90;;
24151;SDS011;12311;50.866;4.332;2023-11-21T12:16:48;12.38;;;4.18;;
24151;SDS011;12311;50.866;4.332;2023-11-21T12:19:14;8.00;;;4.20;;
24151;SDS011;12311;50.866;4.332;2023-11-21T12:21:40;10.70;;;4.20;;
24151;SDS011;12311;50.866;4.332;2023-11-21T12:24:06;10.43;;;3.85;;
24151;SDS011;12311;50.866;4.332;2023-11-21T12:26:34;10.18;;;3.95;;
24151;SDS011;12311;50.866;4.332;2023-11-21T12:29:01;7.45;;;3.55;;
24151;SDS011;12311;50.866;4.332;2023-11-21T12:31:29;8.90;;;3.90;;
24151;SDS011;12311;50.866;4.332;2023-11-21T12:33:55;6.32;;;3.40;;
24151;SDS011;12311;50.866;4.332;2023-11-21T12:36:22;4.85;;;2.67;;
24151;SDS011;12311;50.866;4.332;2023-11-21T12:38:48;8.50;;;3.55;;
24151;SDS011;12311;50.866;4.332;2023-11-21T12:41:15;7.95;;;3.25;;
24151;SDS011;12311;50.866;4.332;2023-11-21T12:43:46;5.43;;;2.95;;
24151;SDS011;12311;50.866;4.332;2023-11-21T12:46:12;5.60;;;2.50;;
24151;SDS011;12311;50.866;4.332;2023-11-21T12:48:43;5.53;;;3.00;;
24151;SDS011;12311;50.866;4.332;2023-11-21T12:51:10;9.30;;;3.10;;
24151;SDS011;12311;50.866;4.332;2023-11-21T12:53:37;8.32;;;3.15;;
24151;SDS011;12311;50.866;4.332;2023-11-21T12:56:21;5.30;;;3.03;;
24151;SDS011;12311;50.866;4.332;2023-11-21T12:58:50;6.40;;;3.10;;
24151;SDS011;12311;50.866;4.332;2023-11-21T13:01:19;5.20;;;3.00;;
24151;SDS011;12311;50.866;4.332;2023-11-21T13:03:47;8.77;;;3.38;;
24151;SDS011;12311;50.866;4.332;2023-11-21T13:06:16;6.60;;;3.45;;
24151;SDS011;12311;50.866;4.332;2023-11-21T13:08:44;8.35;;;3.90;;
24151;SDS011;12311;50.866;4.332;2023-11-21T13:11:10;5.55;;;3.08;;
24151;SDS011;12311;50.866;4.332;2023-11-21T13:13:40;6.90;;;3.38;;
24151;SDS011;12311;50.866;4.332;2023-11-21T13:16:10;6.35;;;2.80;;
24151;SDS011;12311;50.866;4.332;2023-11-21T13:18:36;6.00;;;3.25;;
24151;SDS011;12311;50.866;4.332;2023-11-21T13:21:07;8.20;;;3.73;;
24151;SDS011;12311;50.866;4.332;2023-11-21T13:26:05;6.78;;;3.13;;
24151;SDS011;12311;50.866;4.332;2023-11-21T13:28:32;9.68;;;3.90;;
24151;SDS011;12311;50.866;4.332;2023-11-21T13:30:59;10.13;;;4.07;;
24151;SDS011;12311;50.866;4.332;2023-11-21T13:33:28;12.82;;;4.53;;
24151;SDS011;12311;50.866;4.332;2023-11-21T13:35:55;9.73;;;4.28;;
24151;SDS011;12311;50.866;4.332;2023-11-21T13:38:21;11.20;;;4.60;;
24151;SDS011;12311;50.866;4.332;2023-11-21T13:40:55;8.30;;;4.15;;
24151;SDS011;12311;50.866;4.332;2023-11-21T13:43:22;8.35;;;3.30;;
24151;SDS011;12311;50.866;4.332;2023-11-21T13:45:50;9.52;;;3.47;;
24151;SDS011;12311;50.866;4.332;2023-11-21T13:48:24;5.10;;;2.78;;
24151;SDS011;12311;50.866;4.332;2023-11-21T13:50:56;5.82;;;2.97;;
24151;SDS011;12311;50.866;4.332;2023-11-21T13:53:33;6.20;;;3.22;;
24151;SDS011;12311;50.866;4.332;2023-11-21T13:56:02;6.68;;;3.45;;
24151;SDS011;12311;50.866;4.332;2023-11-21T13:58:28;6.72;;;3.10;;
24151;SDS011;12311;50.866;4.332;2023-11-21T14:01:09;7.68;;;3.55;;
24151;SDS011;12311;50.866;4.332;2023-11-21T14:03:54;6.80;;;3.17;;
24151;SDS011;12311;50.866;4.332;2023-11-21T14:06:42;5.65;;;2.53;;
24151;SDS011;12311;50.866;4.332;2023-11-21T14:09:15;3.55;;;2.78;;
24151;SDS011;12311;50.866;4.332;2023-11-21T14:11:54;4.15;;;2.10;;
24151;SDS011;12311;50.866;4.332;2023-11-21T14:14:25;4.07;;;2.45;;
24151;SDS011;12311;50.866;4.332;2023-11-21T14:16:55;4.22;;;2.10;;
24151;SDS011;12311;50.866;4.332;2023-11-21T14:19:22;4.57;;;2.40;;
24151;SDS011;12311;50.866;4.332;2023-11-21T14:21:52;5.30;;;2.60;;
24151;SDS011;12311;50.866;4.332;2023-11-21T14:24:18;6.90;;;2.97;;
24151;SDS011;12311;50.866;4.332;2023-11-21T14:26:44;4.22;;;2.20;;
24151;SDS011;12311;50.866;4.332;2023-11-21T14:29:11;4.20;;;2.08;;
24151;SDS011;12311;50.866;4.332;2023-11-21T14:31:39;4.20;;;2.25;;
24151;SDS011;12311;50.866;4.332;2023-11-21T14:34:06;4.68;;;2.65;;
24151;SDS011;12311;50.866;4.332;2023-11-21T14:36:33;4.82;;;2.20;;
24151;SDS011;12311;50.866;4.332;2023-11-21T14:38:59;4.30;;;2.22;;
24151;SDS011;12311;50.866;4.332;2023-11-21T14:41:25;5.25;;;2.33;;
24151;SDS011;12311;50.866;4.332;2023-11-21T14:43:52;5.63;;;2.08;;
24151;SDS011;12311;50.866;4.332;2023-11-21T14:46:19;6.57;;;2.35;;
24151;SDS011;12311;50.866;4.332;2023-11-21T14:48:45;7.90;;;2.10;;
24151;SDS011;12311;50.866;4.332;2023-11-21T14:51:27;4.57;;;2.03;;
24151;SDS011;12311;50.866;4.332;2023-11-21T14:53:57;3.85;;;1.95;;